sim
Sign-in with your pilot id or email,
or register
Callsign
Passwort

Schedule Details

Flight Number: OEO3167
Departure: Toulouse Blagnac Airport (LFBO) at 16:20
Arrival: Munich Airport (EDDM) at 18:10

Weather Information
Getting current METAR information for LFBO 260100Z AUTO 27014KT 9999 SCT040 BKN047 BKN054 11/08 Q1019 TEMPO BKN010
Getting current METAR information for EDDM 260120Z 25012KT 9999 -RA BKN014 07/06 Q1000 NOSIG

Schedule Frequency

Route Map